sensor_id;sensor_type;location;lat;lon;timestamp;temperature;humidity
55436;DHT22;41307;53.142;6.430;2023-08-07T00:00:24;15.10;99.90
55436;DHT22;41307;53.142;6.430;2023-08-07T00:02:50;15.10;99.90
55436;DHT22;41307;53.142;6.430;2023-08-07T00:05:15;15.10;99.90
55436;DHT22;41307;53.142;6.430;2023-08-07T00:07:44;15.00;99.90
55436;DHT22;41307;53.142;6.430;2023-08-07T00:10:11;15.00;99.90
55436;DHT22;41307;53.142;6.430;2023-08-07T00:12:37;15.00;99.90
55436;DHT22;41307;53.142;6.430;2023-08-07T00:15:03;14.90;99.90
55436;DHT22;41307;53.142;6.430;2023-08-07T00:17:29;14.90;99.90
55436;DHT22;41307;53.142;6.430;2023-08-07T00:19:55;14.80;99.90
55436;DHT22;41307;53.142;6.430;2023-08-07T00:22:20;14.70;99.90
55436;DHT22;41307;53.142;6.430;2023-08-07T00:24:46;14.70;99.90
55436;DHT22;41307;53.142;6.430;2023-08-07T00:27:12;14.60;99.90
55436;DHT22;41307;53.142;6.430;2023-08-07T00:29:38;14.60;99.90
55436;DHT22;41307;53.142;6.430;2023-08-07T00:32:04;14.50;99.90
55436;DHT22;41307;53.142;6.430;2023-08-07T00:34:30;14.50;99.90
55436;DHT22;41307;53.142;6.430;2023-08-07T00:36:56;14.50;99.90
55436;DHT22;41307;53.142;6.430;2023-08-07T00:39:22;14.50;99.90
55436;DHT22;41307;53.142;6.430;2023-08-07T00:41:48;14.50;99.90
55436;DHT22;41307;53.142;6.430;2023-08-07T00:44:13;14.40;99.90
55436;DHT22;41307;53.142;6.430;2023-08-07T00:46:39;14.40;99.90
55436;DHT22;41307;53.142;6.430;2023-08-07T00:49:07;14.40;99.90
55436;DHT22;41307;53.142;6.430;2023-08-07T00:51:33;14.30;99.90
55436;DHT22;41307;53.142;6.430;2023-08-07T00:54:03;14.30;99.90
55436;DHT22;41307;53.142;6.430;2023-08-07T00:56:29;14.30;99.90
55436;DHT22;41307;53.142;6.430;2023-08-07T00:58:56;14.30;99.90
55436;DHT22;41307;53.142;6.430;2023-08-07T01:01:22;14.30;99.90
55436;DHT22;41307;53.142;6.430;2023-08-07T01:03:49;14.20;99.90
55436;DHT22;41307;53.142;6.430;2023-08-07T01:06:14;14.20;99.90
55436;DHT22;41307;53.142;6.430;2023-08-07T01:08:40;14.10;99.90
55436;DHT22;41307;53.142;6.430;2023-08-07T01:14:36;14.10;99.90
55436;DHT22;41307;53.142;6.430;2023-08-07T01:16:48;14.00;99.90
55436;DHT22;41307;53.142;6.430;2023-08-07T01:19:27;14.00;99.90
55436;DHT22;41307;53.142;6.430;2023-08-07T01:22:12;14.00;99.90
55436;DHT22;41307;53.142;6.430;2023-08-07T01:24:39;13.90;99.90
55436;DHT22;41307;53.142;6.430;2023-08-07T01:32:59;13.80;99.90
55436;DHT22;41307;53.142;6.430;2023-08-07T01:35:30;13.90;99.90
55436;DHT22;41307;53.142;6.430;2023-08-07T01:37:59;13.80;99.90
55436;DHT22;41307;53.142;6.430;2023-08-07T01:40:25;13.80;99.90
55436;DHT22;41307;53.142;6.430;2023-08-07T01:42:52;13.80;99.90
55436;DHT22;41307;53.142;6.430;2023-08-07T01:45:25;13.80;99.90
55436;DHT22;41307;53.142;6.430;2023-08-07T01:47:51;13.80;99.90
55436;DHT22;41307;53.142;6.430;2023-08-07T01:50:18;13.80;99.90
55436;DHT22;41307;53.142;6.430;2023-08-07T01:52:45;13.70;99.90
55436;DHT22;41307;53.142;6.430;2023-08-07T01:55:13;13.70;99.90
55436;DHT22;41307;53.142;6.430;2023-08-07T01:57:38;13.70;99.90
55436;DHT22;41307;53.142;6.430;2023-08-07T02:00:05;13.70;99.90
55436;DHT22;41307;53.142;6.430;2023-08-07T02:02:31;13.60;99.90
55436;DHT22;41307;53.142;6.430;2023-08-07T02:04:56;13.60;99.90
55436;DHT22;41307;53.142;6.430;2023-08-07T02:07:22;13.60;99.90
55436;DHT22;41307;53.142;6.430;2023-08-07T02:09:48;13.60;99.90
55436;DHT22;41307;53.142;6.430;2023-08-07T02:12:13;13.60;99.90
55436;DHT22;41307;53.142;6.430;2023-08-07T02:14:39;13.60;99.90
55436;DHT22;41307;53.142;6.430;2023-08-07T02:17:06;13.70;99.90
55436;DHT22;41307;53.142;6.430;2023-08-07T02:19:31;13.60;99.90
55436;DHT22;41307;53.142;6.430;2023-08-07T02:21:57;13.70;99.90
55436;DHT22;41307;53.142;6.430;2023-08-07T02:24:23;13.70;99.90
55436;DHT22;41307;53.142;6.430;2023-08-07T02:26:49;13.70;99.90
55436;DHT22;41307;53.142;6.430;2023-08-07T02:29:14;13.70;99.90
55436;DHT22;41307;53.142;6.430;2023-08-07T02:31:40;13.70;99.90
55436;DHT22;41307;53.142;6.430;2023-08-07T02:34:06;13.60;99.90
55436;DHT22;41307;53.142;6.430;2023-08-07T02:36:31;13.60;99.90
55436;DHT22;41307;53.142;6.430;2023-08-07T02:38:57;13.60;99.90
55436;DHT22;41307;53.142;6.430;2023-08-07T02:41:23;13.60;99.90
55436;DHT22;41307;53.142;6.430;2023-08-07T02:43:48;13.60;99.90
55436;DHT22;41307;53.142;6.430;2023-08-07T02:46:14;13.60;99.90
55436;DHT22;41307;53.142;6.430;2023-08-07T02:48:40;13.70;99.90
55436;DHT22;41307;53.142;6.430;2023-08-07T02:51:06;13.70;99.90
55436;DHT22;41307;53.142;6.430;2023-08-07T02:53:31;13.80;99.90
55436;DHT22;41307;53.142;6.430;2023-08-07T02:55:57;13.80;99.90
55436;DHT22;41307;53.142;6.430;2023-08-07T02:58:23;13.80;99.90
55436;DHT22;41307;53.142;6.430;2023-08-07T03:00:48;13.90;99.90
55436;DHT22;41307;53.142;6.430;2023-08-07T03:03:14;14.00;99.90
55436;DHT22;41307;53.142;6.430;2023-08-07T03:05:50;14.00;99.90
55436;DHT22;41307;53.142;6.430;2023-08-07T03:08:16;14.00;99.90
55436;DHT22;41307;53.142;6.430;2023-08-07T03:10:49;14.00;99.90
55436;DHT22;41307;53.142;6.430;2023-08-07T03:13:15;14.00;99.90
55436;DHT22;41307;53.142;6.430;2023-08-07T03:15:40;14.10;99.90
55436;DHT22;41307;53.142;6.430;2023-08-07T03:18:06;14.10;99.90
55436;DHT22;41307;53.142;6.430;2023-08-07T03:20:32;14.10;99.90
55436;DHT22;41307;53.142;6.430;2023-08-07T03:22:57;14.10;99.90
55436;DHT22;41307;53.142;6.430;2023-08-07T03:25:23;14.10;99.90
55436;DHT22;41307;53.142;6.430;2023-08-07T03:27:49;14.10;99.90
55436;DHT22;41307;53.142;6.430;2023-08-07T03:30:14;14.10;99.90
55436;DHT22;41307;53.142;6.430;2023-08-07T03:32:40;14.10;99.90
55436;DHT22;41307;53.142;6.430;2023-08-07T03:35:07;14.10;99.90
55436;DHT22;41307;53.142;6.430;2023-08-07T03:37:33;14.10;99.90
55436;DHT22;41307;53.142;6.430;2023-08-07T03:39:58;14.20;99.90
55436;DHT22;41307;53.142;6.430;2023-08-07T03:42:24;14.20;99.90
55436;DHT22;41307;53.142;6.430;2023-08-07T03:44:50;14.20;99.90
55436;DHT22;41307;53.142;6.430;2023-08-07T03:47:15;14.20;99.90
55436;DHT22;41307;53.142;6.430;2023-08-07T03:49:41;14.20;99.90
55436;DHT22;41307;53.142;6.430;2023-08-07T03:52:07;14.30;99.90
55436;DHT22;41307;53.142;6.430;2023-08-07T03:54:32;14.40;99.90
55436;DHT22;41307;53.142;6.430;2023-08-07T03:56:58;14.30;99.90
55436;DHT22;41307;53.142;6.430;2023-08-07T03:59:24;14.40;99.90
55436;DHT22;41307;53.142;6.430;2023-08-07T04:01:49;14.50;99.90
55436;DHT22;41307;53.142;6.430;2023-08-07T04:04:15;14.40;99.90
55436;DHT22;41307;53.142;6.430;2023-08-07T04:06:41;14.50;99.90
55436;DHT22;41307;53.142;6.430;2023-08-07T04:09:06;14.40;99.90
55436;DHT22;41307;53.142;6.430;2023-08-07T04:11:35;14.50;99.90
55436;DHT22;41307;53.142;6.430;2023-08-07T04:14:02;14.50;99.90
55436;DHT22;41307;53.142;6.430;2023-08-07T04:16:27;14.40;99.90
55436;DHT22;41307;53.142;6.430;2023-08-07T04:18:53;14.30;99.90
55436;DHT22;41307;53.142;6.430;2023-08-07T04:21:19;14.40;99.90
55436;DHT22;41307;53.142;6.430;2023-08-07T04:23:44;14.40;99.90
55436;DHT22;41307;53.142;6.430;2023-08-07T04:26:10;14.40;99.90
55436;DHT22;41307;53.142;6.430;2023-08-07T04:28:36;14.40;99.90
55436;DHT22;41307;53.142;6.430;2023-08-07T04:31:01;14.40;99.90
55436;DHT22;41307;53.142;6.430;2023-08-07T04:33:28;14.50;99.90
55436;DHT22;41307;53.142;6.430;2023-08-07T04:35:54;14.40;99.90
55436;DHT22;41307;53.142;6.430;2023-08-07T04:38:19;14.50;99.90
55436;DHT22;41307;53.142;6.430;2023-08-07T04:40:49;14.40;99.90
55436;DHT22;41307;53.142;6.430;2023-08-07T04:43:16;14.40;99.90
55436;DHT22;41307;53.142;6.430;2023-08-07T04:45:42;14.40;99.90
55436;DHT22;41307;53.142;6.430;2023-08-07T04:48:10;14.40;99.90
55436;DHT22;41307;53.142;6.430;2023-08-07T04:50:37;14.50;99.90
55436;DHT22;41307;53.142;6.430;2023-08-07T04:53:04;14.50;99.90
55436;DHT22;41307;53.142;6.430;2023-08-07T04:55:30;14.40;99.90
55436;DHT22;41307;53.142;6.430;2023-08-07T04:57:56;14.40;99.90
55436;DHT22;41307;53.142;6.430;2023-08-07T05:00:22;14.40;99.90
55436;DHT22;41307;53.142;6.430;2023-08-07T05:02:48;14.40;99.90
55436;DHT22;41307;53.142;6.430;2023-08-07T05:05:14;14.50;99.90
55436;DHT22;41307;53.142;6.430;2023-08-07T05:07:40;14.50;99.90
55436;DHT22;41307;53.142;6.430;2023-08-07T05:10:09;14.50;99.90
55436;DHT22;41307;53.142;6.430;2023-08-07T05:12:35;14.50;99.90
55436;DHT22;41307;53.142;6.430;2023-08-07T05:15:01;14.60;99.90
55436;DHT22;41307;53.142;6.430;2023-08-07T05:17:26;14.60;99.90
55436;DHT22;41307;53.142;6.430;2023-08-07T05:19:52;14.50;99.90
55436;DHT22;41307;53.142;6.430;2023-08-07T05:22:18;14.60;99.90
55436;DHT22;41307;53.142;6.430;2023-08-07T05:24:44;14.60;99.90
55436;DHT22;41307;53.142;6.430;2023-08-07T05:27:11;14.50;99.90
55436;DHT22;41307;53.142;6.430;2023-08-07T05:29:37;14.50;99.90
55436;DHT22;41307;53.142;6.430;2023-08-07T05:32:12;14.50;99.90
55436;DHT22;41307;53.142;6.430;2023-08-07T05:34:38;14.50;99.90
55436;DHT22;41307;53.142;6.430;2023-08-07T05:37:05;14.50;99.90
55436;DHT22;41307;53.142;6.430;2023-08-07T05:39:31;14.50;99.90
55436;DHT22;41307;53.142;6.430;2023-08-07T05:41:56;14.70;99.90
55436;DHT22;41307;53.142;6.430;2023-08-07T05:44:23;14.80;99.90
55436;DHT22;41307;53.142;6.430;2023-08-07T05:46:49;14.90;99.90
55436;DHT22;41307;53.142;6.430;2023-08-07T05:49:15;14.90;99.90
55436;DHT22;41307;53.142;6.430;2023-08-07T05:51:41;15.00;99.90
55436;DHT22;41307;53.142;6.430;2023-08-07T05:54:06;15.00;99.90
55436;DHT22;41307;53.142;6.430;2023-08-07T05:56:32;14.90;99.90
55436;DHT22;41307;53.142;6.430;2023-08-07T05:58:58;14.90;99.90
55436;DHT22;41307;53.142;6.430;2023-08-07T06:01:24;14.80;99.90
55436;DHT22;41307;53.142;6.430;2023-08-07T06:03:58;14.80;99.90
55436;DHT22;41307;53.142;6.430;2023-08-07T06:06:24;14.80;99.90
55436;DHT22;41307;53.142;6.430;2023-08-07T06:08:51;14.90;99.90
55436;DHT22;41307;53.142;6.430;2023-08-07T06:11:17;14.90;99.90
55436;DHT22;41307;53.142;6.430;2023-08-07T06:13:43;15.00;99.90
55436;DHT22;41307;53.142;6.430;2023-08-07T06:16:09;15.00;99.90
55436;DHT22;41307;53.142;6.430;2023-08-07T06:18:34;15.00;99.90
55436;DHT22;41307;53.142;6.430;2023-08-07T06:21:01;15.00;99.90
55436;DHT22;41307;53.142;6.430;2023-08-07T06:23:26;14.90;99.90
55436;DHT22;41307;53.142;6.430;2023-08-07T06:25:52;15.00;99.90
55436;DHT22;41307;53.142;6.430;2023-08-07T06:28:18;15.10;99.90
55436;DHT22;41307;53.142;6.430;2023-08-07T06:30:43;15.10;99.90
55436;DHT22;41307;53.142;6.430;2023-08-07T06:33:09;15.10;99.90
55436;DHT22;41307;53.142;6.430;2023-08-07T06:35:38;15.20;99.90
55436;DHT22;41307;53.142;6.430;2023-08-07T06:38:05;15.30;99.90
55436;DHT22;41307;53.142;6.430;2023-08-07T06:40:31;15.40;99.90
55436;DHT22;41307;53.142;6.430;2023-08-07T06:42:56;15.50;99.90
55436;DHT22;41307;53.142;6.430;2023-08-07T06:45:22;15.60;99.90
55436;DHT22;41307;53.142;6.430;2023-08-07T06:47:48;15.70;99.90
55436;DHT22;41307;53.142;6.430;2023-08-07T06:50:14;15.80;99.90
55436;DHT22;41307;53.142;6.430;2023-08-07T06:52:39;15.80;99.90
55436;DHT22;41307;53.142;6.430;2023-08-07T06:55:06;15.80;99.90
55436;DHT22;41307;53.142;6.430;2023-08-07T06:57:32;15.80;99.90
55436;DHT22;41307;53.142;6.430;2023-08-07T06:59:57;15.80;99.90
55436;DHT22;41307;53.142;6.430;2023-08-07T07:02:23;15.80;99.90
55436;DHT22;41307;53.142;6.430;2023-08-07T07:04:49;15.80;99.90
55436;DHT22;41307;53.142;6.430;2023-08-07T07:07:14;15.90;99.90
55436;DHT22;41307;53.142;6.430;2023-08-07T07:09:40;15.90;99.90
55436;DHT22;41307;53.142;6.430;2023-08-07T07:12:06;15.80;99.90
55436;DHT22;41307;53.142;6.430;2023-08-07T07:14:32;15.70;99.90
55436;DHT22;41307;53.142;6.430;2023-08-07T07:16:59;15.70;99.90
55436;DHT22;41307;53.142;6.430;2023-08-07T07:19:25;15.50;99.90
55436;DHT22;41307;53.142;6.430;2023-08-07T07:21:51;15.60;99.90
55436;DHT22;41307;53.142;6.430;2023-08-07T07:24:17;15.50;99.90
55436;DHT22;41307;53.142;6.430;2023-08-07T07:26:43;15.60;99.90
55436;DHT22;41307;53.142;6.430;2023-08-07T07:29:09;15.60;99.90
55436;DHT22;41307;53.142;6.430;2023-08-07T07:31:34;15.50;99.90
55436;DHT22;41307;53.142;6.430;2023-08-07T07:34:00;15.30;99.90
55436;DHT22;41307;53.142;6.430;2023-08-07T07:36:26;15.20;99.90
55436;DHT22;41307;53.142;6.430;2023-08-07T07:38:52;15.10;99.90
55436;DHT22;41307;53.142;6.430;2023-08-07T07:41:18;15.10;99.90
55436;DHT22;41307;53.142;6.430;2023-08-07T07:43:44;15.20;99.90
55436;DHT22;41307;53.142;6.430;2023-08-07T07:46:10;15.20;99.90
55436;DHT22;41307;53.142;6.430;2023-08-07T07:48:35;15.30;99.90
55436;DHT22;41307;53.142;6.430;2023-08-07T07:51:02;15.40;99.90
55436;DHT22;41307;53.142;6.430;2023-08-07T07:53:28;15.50;99.90
55436;DHT22;41307;53.142;6.430;2023-08-07T07:55:54;15.60;99.90
55436;DHT22;41307;53.142;6.430;2023-08-07T07:58:20;15.50;99.90
55436;DHT22;41307;53.142;6.430;2023-08-07T08:00:46;15.40;99.90
55436;DHT22;41307;53.142;6.430;2023-08-07T08:03:12;15.20;99.90
55436;DHT22;41307;53.142;6.430;2023-08-07T08:05:38;15.10;99.90
55436;DHT22;41307;53.142;6.430;2023-08-07T08:08:06;15.10;99.90
55436;DHT22;41307;53.142;6.430;2023-08-07T08:10:37;15.20;99.90
55436;DHT22;41307;53.142;6.430;2023-08-07T08:13:03;15.20;99.90
55436;DHT22;41307;53.142;6.430;2023-08-07T08:15:29;15.10;99.90
55436;DHT22;41307;53.142;6.430;2023-08-07T08:17:55;15.00;99.90
55436;DHT22;41307;53.142;6.430;2023-08-07T08:20:21;14.80;99.90
55436;DHT22;41307;53.142;6.430;2023-08-07T08:22:47;15.00;99.90
55436;DHT22;41307;53.142;6.430;2023-08-07T08:25:13;15.10;99.90
55436;DHT22;41307;53.142;6.430;2023-08-07T08:27:39;15.40;99.90
55436;DHT22;41307;53.142;6.430;2023-08-07T08:30:06;15.60;99.90
55436;DHT22;41307;53.142;6.430;2023-08-07T08:32:32;15.80;99.90
55436;DHT22;41307;53.142;6.430;2023-08-07T08:34:58;16.30;99.90
55436;DHT22;41307;53.142;6.430;2023-08-07T08:37:24;17.30;99.90
55436;DHT22;41307;53.142;6.430;2023-08-07T08:39:49;18.30;99.90
55436;DHT22;41307;53.142;6.430;2023-08-07T08:42:15;19.40;99.90
55436;DHT22;41307;53.142;6.430;2023-08-07T08:44:51;20.30;99.90
55436;DHT22;41307;53.142;6.430;2023-08-07T08:47:17;20.80;99.90
55436;DHT22;41307;53.142;6.430;2023-08-07T08:49:46;21.00;99.90
55436;DHT22;41307;53.142;6.430;2023-08-07T08:52:13;21.50;99.90
55436;DHT22;41307;53.142;6.430;2023-08-07T08:54:40;21.70;99.90
55436;DHT22;41307;53.142;6.430;2023-08-07T08:57:06;21.60;99.90
55436;DHT22;41307;53.142;6.430;2023-08-07T08:59:33;21.80;99.90
55436;DHT22;41307;53.142;6.430;2023-08-07T09:01:59;22.20;99.90
55436;DHT22;41307;53.142;6.430;2023-08-07T09:04:25;22.00;99.90
55436;DHT22;41307;53.142;6.430;2023-08-07T09:06:51;21.90;99.90
55436;DHT22;41307;53.142;6.430;2023-08-07T09:09:20;21.90;99.90
55436;DHT22;41307;53.142;6.430;2023-08-07T09:11:47;21.80;99.90
55436;DHT22;41307;53.142;6.430;2023-08-07T09:14:17;22.10;99.90
55436;DHT22;41307;53.142;6.430;2023-08-07T09:16:47;22.20;99.90
55436;DHT22;41307;53.142;6.430;2023-08-07T09:19:13;22.40;99.90
55436;DHT22;41307;53.142;6.430;2023-08-07T09:21:39;22.30;99.90
55436;DHT22;41307;53.142;6.430;2023-08-07T09:24:04;22.10;99.90
55436;DHT22;41307;53.142;6.430;2023-08-07T09:26:32;22.10;99.90
55436;DHT22;41307;53.142;6.430;2023-08-07T09:28:59;21.80;99.90
55436;DHT22;41307;53.142;6.430;2023-08-07T09:31:26;21.20;99.90
55436;DHT22;41307;53.142;6.430;2023-08-07T09:33:52;20.70;99.90
55436;DHT22;41307;53.142;6.430;2023-08-07T09:36:18;19.90;99.90
55436;DHT22;41307;53.142;6.430;2023-08-07T09:38:49;19.70;99.90
55436;DHT22;41307;53.142;6.430;2023-08-07T09:41:18;19.90;99.90
55436;DHT22;41307;53.142;6.430;2023-08-07T09:43:44;19.90;99.90
55436;DHT22;41307;53.142;6.430;2023-08-07T09:46:10;20.10;99.90
55436;DHT22;41307;53.142;6.430;2023-08-07T09:48:40;20.70;99.90
55436;DHT22;41307;53.142;6.430;2023-08-07T09:51:07;21.00;99.90
55436;DHT22;41307;53.142;6.430;2023-08-07T09:53:33;21.10;99.90
55436;DHT22;41307;53.142;6.430;2023-08-07T09:55:59;20.80;99.90
55436;DHT22;41307;53.142;6.430;2023-08-07T09:58:25;20.40;99.90
55436;DHT22;41307;53.142;6.430;2023-08-07T10:00:52;19.90;99.90
55436;DHT22;41307;53.142;6.430;2023-08-07T10:03:27;19.10;99.90
55436;DHT22;41307;53.142;6.430;2023-08-07T10:05:54;18.90;99.90
55436;DHT22;41307;53.142;6.430;2023-08-07T10:08:21;18.80;99.90
55436;DHT22;41307;53.142;6.430;2023-08-07T10:10:48;18.70;99.90
55436;DHT22;41307;53.142;6.430;2023-08-07T10:13:14;18.90;99.90
55436;DHT22;41307;53.142;6.430;2023-08-07T10:15:40;18.90;99.90
55436;DHT22;41307;53.142;6.430;2023-08-07T10:18:10;18.80;99.90
55436;DHT22;41307;53.142;6.430;2023-08-07T10:20:36;18.70;99.90
55436;DHT22;41307;53.142;6.430;2023-08-07T10:23:11;18.90;99.90
55436;DHT22;41307;53.142;6.430;2023-08-07T10:25:41;19.10;99.90
55436;DHT22;41307;53.142;6.430;2023-08-07T10:28:12;19.20;99.90
55436;DHT22;41307;53.142;6.430;2023-08-07T10:30:40;19.00;99.90
55436;DHT22;41307;53.142;6.430;2023-08-07T10:33:08;19.10;99.90
55436;DHT22;41307;53.142;6.430;2023-08-07T10:35:35;19.20;99.90
55436;DHT22;41307;53.142;6.430;2023-08-07T10:38:10;19.20;99.90
55436;DHT22;41307;53.142;6.430;2023-08-07T10:41:02;19.60;99.90
55436;DHT22;41307;53.142;6.430;2023-08-07T10:43:28;19.90;99.90
55436;DHT22;41307;53.142;6.430;2023-08-07T10:46:15;20.40;99.90
55436;DHT22;41307;53.142;6.430;2023-08-07T10:48:46;20.80;99.90
55436;DHT22;41307;53.142;6.430;2023-08-07T10:51:13;20.90;99.90
55436;DHT22;41307;53.142;6.430;2023-08-07T10:53:45;20.50;99.90
55436;DHT22;41307;53.142;6.430;2023-08-07T10:56:31;20.30;99.90
55436;DHT22;41307;53.142;6.430;2023-08-07T10:58:57;20.70;99.90
55436;DHT22;41307;53.142;6.430;2023-08-07T11:04:00;21.00;99.90
55436;DHT22;41307;53.142;6.430;2023-08-07T11:06:31;20.90;99.90
55436;DHT22;41307;53.142;6.430;2023-08-07T11:09:00;20.40;99.90
55436;DHT22;41307;53.142;6.430;2023-08-07T11:11:36;20.20;99.90
55436;DHT22;41307;53.142;6.430;2023-08-07T11:14:13;20.40;99.90
55436;DHT22;41307;53.142;6.430;2023-08-07T11:16:40;20.60;99.90
55436;DHT22;41307;53.142;6.430;2023-08-07T11:19:06;20.60;99.90
55436;DHT22;41307;53.142;6.430;2023-08-07T11:21:33;20.30;99.90
55436;DHT22;41307;53.142;6.430;2023-08-07T11:24:00;19.80;99.90
55436;DHT22;41307;53.142;6.430;2023-08-07T11:26:26;19.30;99.90
55436;DHT22;41307;53.142;6.430;2023-08-07T11:28:57;19.20;99.90
55436;DHT22;41307;53.142;6.430;2023-08-07T11:31:23;19.10;99.90
55436;DHT22;41307;53.142;6.430;2023-08-07T11:33:55;19.20;99.90
55436;DHT22;41307;53.142;6.430;2023-08-07T11:36:23;19.20;99.90
55436;DHT22;41307;53.142;6.430;2023-08-07T11:38:49;19.40;99.90
55436;DHT22;41307;53.142;6.430;2023-08-07T11:41:16;19.40;99.90
55436;DHT22;41307;53.142;6.430;2023-08-07T11:43:42;19.60;99.90
55436;DHT22;41307;53.142;6.430;2023-08-07T11:46:10;19.40;99.90
55436;DHT22;41307;53.142;6.430;2023-08-07T11:48:37;19.40;99.90
55436;DHT22;41307;53.142;6.430;2023-08-07T11:51:04;19.30;99.90
55436;DHT22;41307;53.142;6.430;2023-08-07T11:53:32;19.00;99.90
55436;DHT22;41307;53.142;6.430;2023-08-07T11:56:00;18.90;99.90
55436;DHT22;41307;53.142;6.430;2023-08-07T11:58:27;18.90;99.90
55436;DHT22;41307;53.142;6.430;2023-08-07T12:00:54;18.80;99.90
55436;DHT22;41307;53.142;6.430;2023-08-07T12:03:31;18.80;99.90
55436;DHT22;41307;53.142;6.430;2023-08-07T12:05:58;18.70;99.90
55436;DHT22;41307;53.142;6.430;2023-08-07T12:08:38;18.60;99.90
55436;DHT22;41307;53.142;6.430;2023-08-07T12:11:13;18.30;99.90
55436;DHT22;41307;53.142;6.430;2023-08-07T12:13:41;17.90;99.90
55436;DHT22;41307;53.142;6.430;2023-08-07T12:16:07;17.30;99.90
55436;DHT22;41307;53.142;6.430;2023-08-07T12:18:34;16.80;99.90
55436;DHT22;41307;53.142;6.430;2023-08-07T12:21:02;16.50;99.90
55436;DHT22;41307;53.142;6.430;2023-08-07T12:23:31;16.40;99.90
55436;DHT22;41307;53.142;6.430;2023-08-07T12:25:58;16.30;99.90
55436;DHT22;41307;53.142;6.430;2023-08-07T12:28:24;16.50;99.90
55436;DHT22;41307;53.142;6.430;2023-08-07T12:30:50;16.80;99.90
55436;DHT22;41307;53.142;6.430;2023-08-07T12:33:16;17.00;99.90
55436;DHT22;41307;53.142;6.430;2023-08-07T12:35:42;17.40;99.90
55436;DHT22;41307;53.142;6.430;2023-08-07T12:38:09;17.60;99.90
55436;DHT22;41307;53.142;6.430;2023-08-07T12:40:35;17.90;99.90
55436;DHT22;41307;53.142;6.430;2023-08-07T12:43:02;17.90;99.90
55436;DHT22;41307;53.142;6.430;2023-08-07T12:45:28;18.10;99.90
55436;DHT22;41307;53.142;6.430;2023-08-07T12:47:54;18.40;99.90
55436;DHT22;41307;53.142;6.430;2023-08-07T12:50:19;18.50;99.90
55436;DHT22;41307;53.142;6.430;2023-08-07T12:52:45;18.60;99.90
55436;DHT22;41307;53.142;6.430;2023-08-07T12:55:11;18.30;99.90
55436;DHT22;41307;53.142;6.430;2023-08-07T12:57:43;18.20;99.90
55436;DHT22;41307;53.142;6.430;2023-08-07T13:00:10;18.10;99.90
55436;DHT22;41307;53.142;6.430;2023-08-07T13:02:41;18.10;99.90
55436;DHT22;41307;53.142;6.430;2023-08-07T13:05:08;18.10;99.90
55436;DHT22;41307;53.142;6.430;2023-08-07T13:07:35;18.30;99.90
55436;DHT22;41307;53.142;6.430;2023-08-07T13:10:01;18.40;99.90
55436;DHT22;41307;53.142;6.430;2023-08-07T13:12:26;18.50;99.90
55436;DHT22;41307;53.142;6.430;2023-08-07T13:14:52;18.60;99.90
55436;DHT22;41307;53.142;6.430;2023-08-07T13:17:18;18.90;99.90
55436;DHT22;41307;53.142;6.430;2023-08-07T13:19:44;18.90;99.90
55436;DHT22;41307;53.142;6.430;2023-08-07T13:22:09;19.00;99.90
55436;DHT22;41307;53.142;6.430;2023-08-07T13:24:35;19.10;99.90
55436;DHT22;41307;53.142;6.430;2023-08-07T13:27:01;19.30;99.90
55436;DHT22;41307;53.142;6.430;2023-08-07T13:29:26;19.60;99.90
55436;DHT22;41307;53.142;6.430;2023-08-07T13:31:55;19.70;99.90
55436;DHT22;41307;53.142;6.430;2023-08-07T13:34:21;19.30;99.90
55436;DHT22;41307;53.142;6.430;2023-08-07T13:36:47;19.20;99.90
55436;DHT22;41307;53.142;6.430;2023-08-07T13:39:12;18.90;99.90
55436;DHT22;41307;53.142;6.430;2023-08-07T13:41:39;18.60;99.90
55436;DHT22;41307;53.142;6.430;2023-08-07T13:44:04;18.50;99.90
55436;DHT22;41307;53.142;6.430;2023-08-07T13:46:30;18.60;99.90
55436;DHT22;41307;53.142;6.430;2023-08-07T13:48:56;18.50;99.90
55436;DHT22;41307;53.142;6.430;2023-08-07T13:51:21;18.60;99.90
55436;DHT22;41307;53.142;6.430;2023-08-07T13:53:47;18.40;99.90
55436;DHT22;41307;53.142;6.430;2023-08-07T13:56:13;18.30;99.90
55436;DHT22;41307;53.142;6.430;2023-08-07T13:58:39;18.30;99.90
55436;DHT22;41307;53.142;6.430;2023-08-07T14:01:05;18.40;99.90
55436;DHT22;41307;53.142;6.430;2023-08-07T14:03:31;18.40;99.90
55436;DHT22;41307;53.142;6.430;2023-08-07T14:05:57;18.30;99.90
55436;DHT22;41307;53.142;6.430;2023-08-07T14:08:23;18.40;99.90
55436;DHT22;41307;53.142;6.430;2023-08-07T14:10:48;18.50;99.90
55436;DHT22;41307;53.142;6.430;2023-08-07T14:13:14;18.60;99.90
55436;DHT22;41307;53.142;6.430;2023-08-07T14:15:40;18.70;99.90
55436;DHT22;41307;53.142;6.430;2023-08-07T14:18:06;18.70;99.90
55436;DHT22;41307;53.142;6.430;2023-08-07T14:20:31;18.50;99.90
55436;DHT22;41307;53.142;6.430;2023-08-07T14:22:57;18.30;99.90
55436;DHT22;41307;53.142;6.430;2023-08-07T14:25:23;18.10;99.90
55436;DHT22;41307;53.142;6.430;2023-08-07T14:27:49;18.20;99.90
55436;DHT22;41307;53.142;6.430;2023-08-07T14:30:15;18.20;99.90
55436;DHT22;41307;53.142;6.430;2023-08-07T14:32:41;18.10;99.90
55436;DHT22;41307;53.142;6.430;2023-08-07T14:35:12;18.10;99.90
55436;DHT22;41307;53.142;6.430;2023-08-07T14:37:39;17.90;99.90
55436;DHT22;41307;53.142;6.430;2023-08-07T14:40:05;17.80;99.90
55436;DHT22;41307;53.142;6.430;2023-08-07T14:42:32;17.80;99.90
55436;DHT22;41307;53.142;6.430;2023-08-07T14:44:58;17.90;99.90
55436;DHT22;41307;53.142;6.430;2023-08-07T14:47:24;18.00;99.90
55436;DHT22;41307;53.142;6.430;2023-08-07T14:49:50;17.90;99.90
55436;DHT22;41307;53.142;6.430;2023-08-07T14:52:16;18.00;99.90
55436;DHT22;41307;53.142;6.430;2023-08-07T14:54:41;17.90;99.90
55436;DHT22;41307;53.142;6.430;2023-08-07T14:57:07;17.90;99.90
55436;DHT22;41307;53.142;6.430;2023-08-07T14:59:33;17.80;99.90
55436;DHT22;41307;53.142;6.430;2023-08-07T15:01:59;17.60;99.90
55436;DHT22;41307;53.142;6.430;2023-08-07T15:04:24;17.50;99.90
55436;DHT22;41307;53.142;6.430;2023-08-07T15:06:50;17.30;99.90
55436;DHT22;41307;53.142;6.430;2023-08-07T15:09:16;17.40;99.90
55436;DHT22;41307;53.142;6.430;2023-08-07T15:11:48;17.40;99.90
55436;DHT22;41307;53.142;6.430;2023-08-07T15:14:14;17.40;99.90
55436;DHT22;41307;53.142;6.430;2023-08-07T15:16:40;17.30;99.90
55436;DHT22;41307;53.142;6.430;2023-08-07T15:19:06;17.20;99.90
55436;DHT22;41307;53.142;6.430;2023-08-07T15:21:32;17.40;99.90
55436;DHT22;41307;53.142;6.430;2023-08-07T15:23:58;17.40;99.90
55436;DHT22;41307;53.142;6.430;2023-08-07T15:26:24;17.60;99.90
55436;DHT22;41307;53.142;6.430;2023-08-07T15:28:49;17.70;99.90
55436;DHT22;41307;53.142;6.430;2023-08-07T15:31:15;17.80;99.90
55436;DHT22;41307;53.142;6.430;2023-08-07T15:33:41;17.80;99.90
55436;DHT22;41307;53.142;6.430;2023-08-07T15:36:10;17.90;99.90
55436;DHT22;41307;53.142;6.430;2023-08-07T15:38:36;18.00;99.90